createdAt,value
2022-11-03T00:01:45.350Z,3.38
2022-11-03T00:04:14.103Z,2.95
2022-11-03T00:06:41.812Z,2.78
2022-11-03T00:09:10.999Z,3.13
2022-11-03T00:11:40.011Z,2.50
2022-11-03T00:14:07.585Z,2.40
2022-11-03T00:16:34.456Z,3.53
2022-11-03T00:19:01.639Z,2.53
2022-11-03T00:21:28.724Z,3.40
2022-11-03T00:23:55.855Z,3.28
2022-11-03T00:26:23.790Z,2.80
2022-11-03T00:28:54.749Z,2.70
2022-11-03T00:31:25.459Z,2.97
2022-11-03T00:33:53.058Z,2.92
2022-11-03T00:36:22.592Z,3.60
2022-11-03T00:38:49.560Z,2.60
2022-11-03T00:41:17.199Z,4.40
2022-11-03T00:43:44.033Z,3.83
2022-11-03T00:46:10.856Z,2.97
2022-11-03T00:48:38.195Z,2.42
2022-11-03T00:51:12.412Z,4.00
2022-11-03T00:53:51.710Z,2.80
2022-11-03T00:56:20.817Z,2.42
2022-11-03T00:58:47.978Z,3.45
2022-11-03T01:01:20.401Z,2.88
2022-11-03T01:04:12.477Z,2.67
2022-11-03T01:06:51.207Z,2.63
2022-11-03T01:09:26.672Z,2.67
2022-11-03T01:12:16.660Z,2.65
2022-11-03T01:14:46.137Z,3.47
2022-11-03T01:17:15.473Z,2.58
2022-11-03T01:19:42.565Z,2.90
2022-11-03T01:22:10.980Z,2.25
2022-11-03T01:24:39.925Z,2.30
2022-11-03T01:27:06.783Z,3.70
2022-11-03T01:29:33.482Z,3.88
2022-11-03T01:32:00.189Z,3.55
2022-11-03T01:34:26.858Z,3.75
2022-11-03T01:36:53.530Z,3.00
2022-11-03T01:39:20.417Z,2.90
2022-11-03T01:41:49.679Z,3.08
2022-11-03T01:44:16.273Z,2.78
2022-11-03T01:46:57.543Z,2.85
2022-11-03T01:49:46.762Z,2.70
2022-11-03T01:52:18.909Z,3.10
2022-11-03T01:54:50.382Z,4.20
2022-11-03T01:57:23.885Z,2.90
2022-11-03T01:59:51.653Z,2.70
2022-11-03T02:02:24.710Z,3.25
2022-11-03T02:04:53.102Z,2.83
2022-11-03T02:07:34.865Z,2.40
2022-11-03T02:10:05.700Z,2.95
2022-11-03T02:12:38.137Z,2.92
2022-11-03T02:15:10.438Z,3.40
2022-11-03T02:17:37.868Z,2.95
2022-11-03T02:20:14.875Z,2.92
2022-11-03T02:22:56.280Z,2.92
2022-11-03T02:25:50.075Z,2.35
2022-11-03T02:28:20.981Z,3.10
2022-11-03T02:30:54.820Z,3.22
2022-11-03T02:33:38.958Z,2.80
2022-11-03T02:36:14.306Z,2.63
2022-11-03T02:38:48.106Z,2.85
2022-11-03T02:41:16.079Z,2.90
2022-11-03T02:43:44.715Z,3.25
2022-11-03T02:46:14.638Z,2.67
2022-11-03T02:48:41.426Z,2.80
2022-11-03T02:51:08.105Z,2.85
2022-11-03T02:53:42.030Z,3.13
2022-11-03T02:56:18.114Z,2.83
2022-11-03T02:58:57.418Z,3.05
2022-11-03T03:01:34.449Z,2.95
2022-11-03T03:04:06.380Z,2.22
2022-11-03T03:06:59.775Z,3.17
2022-11-03T03:09:32.818Z,3.08
2022-11-03T03:12:01.952Z,3.45
2022-11-03T03:14:38.017Z,3.22
2022-11-03T03:17:13.937Z,2.83
2022-11-03T03:19:53.077Z,2.30
2022-11-03T03:22:51.879Z,2.55
2022-11-03T03:25:36.019Z,2.28
2022-11-03T03:28:13.625Z,2.70
2022-11-03T03:30:42.341Z,2.45
2022-11-03T03:33:10.088Z,2.47
2022-11-03T03:35:39.845Z,2.60
2022-11-03T03:38:13.266Z,2.95
2022-11-03T03:40:43.962Z,3.00
2022-11-03T03:43:13.077Z,2.85
2022-11-03T03:45:42.888Z,3.05
2022-11-03T03:48:09.736Z,2.63
2022-11-03T03:50:39.998Z,2.28
2022-11-03T03:53:11.149Z,3.38
2022-11-03T03:55:40.365Z,2.72
2022-11-03T03:58:10.347Z,2.50
2022-11-03T04:00:39.940Z,1.98
2022-11-03T04:03:12.785Z,2.92
2022-11-03T04:05:39.425Z,2.95
2022-11-03T04:08:06.414Z,2.85
2022-11-03T04:10:33.301Z,2.63
2022-11-03T04:13:18.895Z,2.15
2022-11-03T04:16:04.221Z,3.25
2022-11-03T04:18:49.629Z,2.92
2022-11-03T04:21:34.843Z,2.83
2022-11-03T04:24:01.614Z,2.97
2022-11-03T04:26:29.047Z,2.30
2022-11-03T04:28:56.122Z,3.10
2022-11-03T04:31:23.318Z,3.13
2022-11-03T04:33:50.801Z,2.92
2022-11-03T04:36:21.384Z,2.88
2022-11-03T04:38:49.201Z,2.30
2022-11-03T04:41:23.048Z,2.80
2022-11-03T04:43:51.353Z,2.53
2022-11-03T04:46:24.891Z,2.78
2022-11-03T04:48:53.873Z,2.85
2022-11-03T04:51:24.829Z,2.63
2022-11-03T04:53:58.401Z,3.15
2022-11-03T04:56:25.681Z,2.88
2022-11-03T04:58:53.630Z,3.72
2022-11-03T05:01:24.378Z,3.13
2022-11-03T05:03:54.170Z,3.20
2022-11-03T05:06:27.980Z,2.70
2022-11-03T05:09:15.211Z,3.15
2022-11-03T05:11:45.092Z,2.80
2022-11-03T05:14:22.725Z,2.80
2022-11-03T05:16:51.102Z,2.80
2022-11-03T05:19:51.829Z,2.83
2022-11-03T05:22:22.267Z,2.92
2022-11-03T05:24:58.601Z,2.58
2022-11-03T05:27:25.457Z,2.67
2022-11-03T05:29:56.393Z,3.42
2022-11-03T05:32:30.158Z,2.75
2022-11-03T05:34:57.461Z,2.55
2022-11-03T05:37:30.157Z,3.00
2022-11-03T05:40:00.438Z,2.70
2022-11-03T05:42:37.301Z,2.60
2022-11-03T05:45:31.470Z,3.00
2022-11-03T05:47:58.738Z,2.72
2022-11-03T05:50:28.149Z,2.10
2022-11-03T05:53:11.971Z,2.83
2022-11-03T05:55:39.942Z,2.67
2022-11-03T05:58:42.467Z,2.90
2022-11-03T06:01:37.062Z,2.85
2022-11-03T06:04:21.751Z,2.72
2022-11-03T06:07:23.536Z,2.40
2022-11-03T06:09:51.954Z,2.65
2022-11-03T06:12:20.605Z,3.40
2022-11-03T06:14:47.769Z,3.05
2022-11-03T06:17:24.359Z,2.60
2022-11-03T06:19:54.751Z,3.25
2022-11-03T06:22:26.543Z,2.28
2022-11-03T06:24:58.852Z,2.47
2022-11-03T06:27:28.933Z,3.10
2022-11-03T06:30:12.996Z,2.40
2022-11-03T06:32:39.705Z,2.70
2022-11-03T06:35:11.174Z,3.28
2022-11-03T06:37:37.965Z,2.30
2022-11-03T06:40:10.404Z,2.65
2022-11-03T06:42:39.774Z,2.53
2022-11-03T06:45:26.205Z,2.67
2022-11-03T06:47:54.022Z,3.00
2022-11-03T06:50:31.227Z,3.00
2022-11-03T06:52:59.433Z,3.13
2022-11-03T06:55:33.948Z,2.67
2022-11-03T06:58:23.261Z,2.90
2022-11-03T07:00:51.512Z,2.90
2022-11-03T07:03:30.696Z,3.78
2022-11-03T07:06:21.224Z,2.97
2022-11-03T07:08:54.658Z,2.80
2022-11-03T07:11:24.171Z,2.90
2022-11-03T07:14:02.730Z,2.90
2022-11-03T07:16:36.942Z,2.33
2022-11-03T07:19:06.157Z,2.83
2022-11-03T07:21:45.715Z,2.85
2022-11-03T07:24:22.919Z,3.10
2022-11-03T07:26:56.775Z,2.72
2022-11-03T07:29:27.537Z,3.65
2022-11-03T07:31:57.014Z,2.90
2022-11-03T07:34:27.637Z,3.30
2022-11-03T07:36:56.706Z,2.63
2022-11-03T07:39:23.746Z,2.70
2022-11-03T07:41:51.377Z,2.25
2022-11-03T07:44:21.355Z,2.80
2022-11-03T07:46:50.532Z,4.20
2022-11-03T07:49:27.100Z,3.63
2022-11-03T07:51:55.194Z,2.85
2022-11-03T07:54:26.798Z,2.65
2022-11-03T07:56:55.782Z,2.95
2022-11-03T07:59:28.479Z,3.05
2022-11-03T08:01:57.506Z,3.03
2022-11-03T08:04:35.417Z,4.35
2022-11-03T08:07:02.357Z,3.78
2022-11-03T08:09:29.231Z,3.25
2022-11-03T08:11:55.909Z,3.38
2022-11-03T08:14:22.550Z,2.92
2022-11-03T08:16:49.293Z,3.45
2022-11-03T08:19:15.974Z,3.45
2022-11-03T08:21:42.618Z,3.38
2022-11-03T08:24:09.258Z,3.67
2022-11-03T08:26:35.917Z,3.10
2022-11-03T08:29:02.674Z,3.33
2022-11-03T08:31:29.325Z,2.95
2022-11-03T08:33:56.033Z,2.75
2022-11-03T08:36:22.733Z,3.50
2022-11-03T08:38:49.411Z,2.92
2022-11-03T08:41:16.080Z,3.10
2022-11-03T08:43:42.716Z,3.20
2022-11-03T08:46:17.102Z,3.72
2022-11-03T08:48:44.887Z,3.30
2022-11-03T08:51:13.584Z,3.40
2022-11-03T08:53:42.523Z,2.58
2022-11-03T08:56:12.423Z,2.85
2022-11-03T08:58:40.675Z,3.20
2022-11-03T09:01:07.945Z,3.45
2022-11-03T09:03:34.927Z,3.33
2022-11-03T09:06:01.657Z,3.00
2022-11-03T09:11:14.935Z,3.25
2022-11-03T09:13:41.640Z,3.00
2022-11-03T09:16:08.591Z,3.03
2022-11-03T09:18:35.357Z,3.33
2022-11-03T09:21:02.049Z,3.60
2022-11-03T09:23:28.691Z,3.45
2022-11-03T09:25:55.332Z,2.83
2022-11-03T09:28:21.986Z,3.35
2022-11-03T09:30:48.689Z,2.97
2022-11-03T09:33:15.453Z,3.60
2022-11-03T09:35:42.150Z,3.00
2022-11-03T09:38:09.057Z,3.00
2022-11-03T09:40:36.249Z,3.08
2022-11-03T09:43:03.334Z,3.13
2022-11-03T09:45:30.025Z,3.28
2022-11-03T09:47:56.870Z,2.70
2022-11-03T09:50:24.020Z,3.53
2022-11-03T09:52:55.228Z,2.92
2022-11-03T09:55:25.513Z,2.92
2022-11-03T09:58:01.257Z,2.83
2022-11-03T10:00:28.372Z,2.85
2022-11-03T10:02:55.611Z,3.17
2022-11-03T10:05:27.789Z,2.80
2022-11-03T10:08:11.215Z,3.40
2022-11-03T10:10:39.559Z,2.97
2022-11-03T10:13:12.336Z,3.05
2022-11-03T10:15:39.849Z,3.10
2022-11-03T10:18:08.113Z,2.70
2022-11-03T10:20:34.768Z,2.58
2022-11-03T10:23:01.413Z,2.60
2022-11-03T10:25:37.307Z,3.75
2022-11-03T10:28:24.441Z,2.40
2022-11-03T10:31:14.451Z,3.08
2022-11-03T10:33:51.884Z,2.67
2022-11-03T10:36:18.507Z,2.72
2022-11-03T10:38:45.819Z,2.78
2022-11-03T10:41:19.602Z,2.28
2022-11-03T10:44:12.253Z,2.83
2022-11-03T10:46:55.519Z,2.20
2022-11-03T10:49:22.603Z,2.75
2022-11-03T10:51:52.241Z,2.80
2022-11-03T10:54:22.052Z,2.50
2022-11-03T10:56:50.740Z,2.65
2022-11-03T10:59:24.469Z,2.63
2022-11-03T11:01:51.581Z,2.50
2022-11-03T11:04:20.539Z,2.55
2022-11-03T11:06:47.976Z,2.00
2022-11-03T11:09:26.592Z,2.75
2022-11-03T11:12:21.954Z,2.40
2022-11-03T11:15:06.931Z,2.45
2022-11-03T11:17:45.716Z,2.72
2022-11-03T11:20:24.154Z,3.17
2022-11-03T11:22:51.244Z,2.45
2022-11-03T11:25:18.707Z,2.80
2022-11-03T11:27:45.498Z,2.80
2022-11-03T11:30:21.131Z,2.80
2022-11-03T11:32:59.356Z,2.55
2022-11-03T11:35:26.435Z,1.80
2022-11-03T11:37:54.282Z,2.45
2022-11-03T11:40:23.918Z,3.17
2022-11-03T11:43:02.555Z,2.08
2022-11-03T11:46:06.593Z,2.45
2022-11-03T11:48:33.615Z,2.20
2022-11-03T11:51:02.239Z,3.10
2022-11-03T11:53:39.814Z,2.58
2022-11-03T11:56:10.851Z,2.15
2022-11-03T11:58:49.878Z,2.25
2022-11-03T12:01:32.993Z,2.60
2022-11-03T12:04:05.516Z,2.38
2022-11-03T12:09:12.504Z,2.85
2022-11-03T12:11:47.582Z,2.80
2022-11-03T12:14:36.971Z,2.08
2022-11-03T12:17:18.731Z,2.13
2022-11-03T12:19:47.045Z,2.22
2022-11-03T12:22:29.008Z,2.80
2022-11-03T12:24:59.650Z,2.47
2022-11-03T12:27:26.355Z,1.92
2022-11-03T12:30:11.348Z,2.10
2022-11-03T12:32:37.993Z,2.05
2022-11-03T12:35:06.670Z,2.20
2022-11-03T12:37:33.448Z,2.17
2022-11-03T12:40:00.235Z,2.58
2022-11-03T12:42:26.922Z,2.10
2022-11-03T12:44:53.820Z,2.17
2022-11-03T12:47:21.139Z,2.80
2022-11-03T12:49:48.125Z,2.22
2022-11-03T12:52:14.965Z,2.10
2022-11-03T12:54:42.412Z,1.85
2022-11-03T12:57:09.786Z,2.30
2022-11-03T12:59:37.691Z,2.08
2022-11-03T13:02:04.698Z,1.92
2022-11-03T13:04:31.477Z,2.20
2022-11-03T13:06:58.202Z,2.00
2022-11-03T13:09:24.972Z,1.85
2022-11-03T13:12:10.186Z,2.53
2022-11-03T13:14:36.865Z,2.30
2022-11-03T13:17:03.748Z,1.70
2022-11-03T13:19:30.627Z,2.13
2022-11-03T13:21:57.315Z,2.03
2022-11-03T13:24:24.011Z,1.60
2022-11-03T13:26:50.688Z,2.33
2022-11-03T13:29:17.557Z,1.92
2022-11-03T13:31:44.311Z,1.70
2022-11-03T13:34:10.952Z,1.98
2022-11-03T13:36:37.573Z,1.85
2022-11-03T13:39:04.585Z,2.15
2022-11-03T13:41:31.374Z,1.95
2022-11-03T13:43:58.078Z,2.15
2022-11-03T13:46:24.835Z,1.90
2022-11-03T13:51:38.153Z,1.63
2022-11-03T13:59:38.429Z,1.95
2022-11-03T14:04:53.961Z,1.85
2022-11-03T14:07:20.692Z,1.95
2022-11-03T14:09:47.379Z,1.80
2022-11-03T14:12:32.629Z,2.10
2022-11-03T14:15:01.248Z,1.80
2022-11-03T14:17:28.662Z,1.90
2022-11-03T14:20:00.834Z,2.65
2022-11-03T14:22:31.070Z,2.20
2022-11-03T14:24:58.008Z,2.00
2022-11-03T14:27:24.862Z,1.85
2022-11-03T14:29:51.734Z,2.20
2022-11-03T14:32:19.532Z,2.22
2022-11-03T14:34:46.938Z,1.80
2022-11-03T14:37:14.303Z,1.95
2022-11-03T14:39:41.226Z,1.88
2022-11-03T14:42:15.521Z,1.85
2022-11-03T14:44:44.364Z,1.58
2022-11-03T14:47:13.170Z,1.88
2022-11-03T14:49:40.254Z,1.83
2022-11-03T14:52:07.999Z,2.28
2022-11-03T14:54:36.243Z,2.10
2022-11-03T14:57:04.138Z,2.28
2022-11-03T14:59:32.109Z,1.90
2022-11-03T15:01:59.641Z,2.05
2022-11-03T15:04:26.967Z,2.20
2022-11-03T15:06:54.370Z,2.33
2022-11-03T15:09:21.071Z,1.92
2022-11-03T15:11:48.094Z,1.90
2022-11-03T15:14:14.908Z,1.77
2022-11-03T15:16:41.712Z,2.00
2022-11-03T15:19:08.707Z,2.10
2022-11-03T15:21:35.557Z,2.20
2022-11-03T15:26:49.387Z,2.50
2022-11-03T15:29:16.054Z,2.25
2022-11-03T15:31:47.642Z,2.45
2022-11-03T15:34:15.628Z,2.47
2022-11-03T15:36:42.422Z,1.60
2022-11-03T15:39:09.520Z,2.17
2022-11-03T15:41:36.197Z,1.90
2022-11-03T15:44:02.857Z,2.10
2022-11-03T15:46:29.501Z,2.85
2022-11-03T15:48:57.413Z,2.17
2022-11-03T15:51:24.253Z,2.13
2022-11-03T15:53:56.674Z,2.72
2022-11-03T15:56:25.921Z,2.47
2022-11-03T15:58:52.800Z,2.17
2022-11-03T16:01:19.502Z,2.40
2022-11-03T16:03:46.302Z,2.30
2022-11-03T16:06:12.936Z,2.00
2022-11-03T16:08:39.926Z,2.15
2022-11-03T16:11:06.571Z,2.58
2022-11-03T16:13:33.220Z,2.20
2022-11-03T16:15:59.931Z,2.58
2022-11-03T16:18:26.589Z,1.88
2022-11-03T16:20:53.226Z,2.13
2022-11-03T16:23:19.852Z,2.08
2022-11-03T16:25:46.555Z,2.20
2022-11-03T16:28:13.269Z,2.10
2022-11-03T16:30:40.069Z,2.40
2022-11-03T16:33:07.352Z,1.98
2022-11-03T16:35:34.254Z,2.15
2022-11-03T16:38:01.006Z,2.15
2022-11-03T16:40:28.098Z,2.60
2022-11-03T16:42:55.018Z,2.15
2022-11-03T16:45:23.527Z,2.40
2022-11-03T16:47:51.008Z,2.25
2022-11-03T16:50:18.957Z,2.50
2022-11-03T16:52:47.188Z,2.17
2022-11-03T16:55:15.284Z,2.53
2022-11-03T16:57:42.614Z,2.60
2022-11-03T17:00:15.285Z,2.47
2022-11-03T17:02:42.325Z,2.28
2022-11-03T17:05:09.691Z,2.13
2022-11-03T17:07:36.593Z,2.30
2022-11-03T17:10:04.469Z,2.67
2022-11-03T17:12:31.231Z,2.58
2022-11-03T17:14:58.468Z,2.85
2022-11-03T17:17:25.125Z,2.83
2022-11-03T17:19:51.945Z,2.63
2022-11-03T17:22:20.139Z,2.47
2022-11-03T17:24:46.845Z,2.58
2022-11-03T17:27:17.119Z,2.67
2022-11-03T17:29:54.497Z,2.25
2022-11-03T17:32:25.984Z,2.40
2022-11-03T17:34:53.597Z,3.72
2022-11-03T17:37:21.048Z,3.00
2022-11-03T17:39:47.706Z,2.65
2022-11-03T17:42:15.984Z,2.67
2022-11-03T17:44:44.422Z,2.83
2022-11-03T17:47:11.112Z,2.70
2022-11-03T17:49:37.807Z,2.53
2022-11-03T17:52:05.033Z,2.83
2022-11-03T17:54:32.378Z,2.78
2022-11-03T17:57:01.405Z,3.47
2022-11-03T17:59:28.530Z,2.97
2022-11-03T18:01:55.732Z,3.15
2022-11-03T18:04:23.063Z,3.30
2022-11-03T18:06:49.721Z,3.35
2022-11-03T18:09:16.520Z,3.42
2022-11-03T18:12:02.336Z,3.38
2022-11-03T18:14:30.010Z,3.45
2022-11-03T18:16:57.869Z,3.45
2022-11-03T18:19:24.913Z,3.50
2022-11-03T18:21:51.563Z,3.22
2022-11-03T18:24:20.054Z,3.13
2022-11-03T18:26:46.706Z,3.35
2022-11-03T18:29:13.404Z,3.30
2022-11-03T18:31:43.478Z,4.05
2022-11-03T18:34:15.354Z,3.42
2022-11-03T18:36:42.011Z,3.13
2022-11-03T18:39:13.394Z,3.85
2022-11-03T18:41:40.330Z,3.53
2022-11-03T18:44:23.985Z,3.53
2022-11-03T18:46:51.893Z,3.97
2022-11-03T18:49:19.549Z,3.78
2022-11-03T18:52:00.865Z,3.53
2022-11-03T18:56:57.481Z,3.80
2022-11-03T18:59:31.742Z,4.00
2022-11-03T19:01:58.845Z,4.07
2022-11-03T19:04:25.586Z,4.35
2022-11-03T19:06:52.915Z,3.78
2022-11-03T19:09:24.338Z,4.05
2022-11-03T19:11:53.154Z,3.88
2022-11-03T19:14:28.584Z,4.65
2022-11-03T19:19:44.558Z,4.38
2022-11-03T19:22:14.236Z,3.88
2022-11-03T19:24:42.083Z,4.57
2022-11-03T19:27:16.774Z,3.90
2022-11-03T19:29:45.464Z,3.97
2022-11-03T19:32:26.939Z,4.15
2022-11-03T19:35:06.574Z,4.93
2022-11-03T19:37:35.756Z,4.13
2022-11-03T19:40:05.914Z,4.43
2022-11-03T19:42:36.381Z,4.65
2022-11-03T19:45:05.905Z,4.13
2022-11-03T19:47:39.738Z,4.47
2022-11-03T19:50:17.260Z,4.80
2022-11-03T19:52:44.984Z,5.13
2022-11-03T19:55:13.533Z,4.90
2022-11-03T19:57:40.208Z,4.65
2022-11-03T20:00:15.976Z,4.88
2022-11-03T20:02:46.509Z,4.82
2022-11-03T20:05:15.057Z,5.18
2022-11-03T20:07:43.273Z,4.85
2022-11-03T20:10:17.797Z,4.95
2022-11-03T20:12:45.427Z,5.57
2022-11-03T20:15:18.904Z,5.00
2022-11-03T20:17:46.785Z,5.13
2022-11-03T20:20:15.464Z,5.10
2022-11-03T20:22:45.757Z,5.32
2022-11-03T20:25:19.566Z,5.30
2022-11-03T20:27:46.757Z,5.30
2022-11-03T20:30:16.365Z,6.00
2022-11-03T20:32:45.227Z,5.57
2022-11-03T20:35:38.526Z,5.97
2022-11-03T20:38:06.163Z,5.93
2022-11-03T20:40:32.972Z,5.80
2022-11-03T20:43:02.040Z,5.15
2022-11-03T20:45:32.046Z,5.20
2022-11-03T20:47:58.960Z,6.32
2022-11-03T20:50:26.183Z,5.72
2022-11-03T20:52:54.161Z,6.03
2022-11-03T20:55:25.825Z,5.22
2022-11-03T20:57:54.486Z,6.03
2022-11-03T21:00:27.067Z,6.57
2022-11-03T21:05:27.352Z,5.95
2022-11-03T21:07:55.583Z,5.82
2022-11-03T21:10:23.612Z,6.13
2022-11-03T21:12:51.217Z,5.75
2022-11-03T21:15:48.171Z,5.88
2022-11-03T21:18:43.149Z,5.50
2022-11-03T21:21:11.307Z,6.50
2022-11-03T21:23:38.261Z,5.30
2022-11-03T21:26:05.117Z,5.70
2022-11-03T21:28:31.823Z,5.63
2022-11-03T21:30:59.039Z,5.80
2022-11-03T21:33:25.695Z,5.43
2022-11-03T21:35:52.421Z,6.13
2022-11-03T21:38:19.134Z,6.00
2022-11-03T21:40:52.359Z,5.85
2022-11-03T21:44:00.272Z,5.57
2022-11-03T21:46:26.926Z,6.55
2022-11-03T21:49:12.120Z,7.03
2022-11-03T21:51:38.741Z,6.07
2022-11-03T21:54:05.581Z,5.93
2022-11-03T21:56:32.205Z,6.40
2022-11-03T21:58:58.858Z,6.10
2022-11-03T22:01:25.575Z,6.70
2022-11-03T22:03:52.238Z,6.85
2022-11-03T22:06:18.929Z,6.45
2022-11-03T22:08:45.549Z,6.53
2022-11-03T22:11:22.337Z,7.22
2022-11-03T22:13:56.484Z,6.95
2022-11-03T22:16:43.805Z,7.07
2022-11-03T22:19:37.722Z,7.32
2022-11-03T22:22:28.978Z,6.85
2022-11-03T22:25:14.374Z,6.45
2022-11-03T22:27:41.341Z,6.35
2022-11-03T22:30:26.852Z,6.93
2022-11-03T22:32:55.338Z,6.10
2022-11-03T22:35:42.619Z,6.60
2022-11-03T22:38:15.041Z,6.80
2022-11-03T22:41:01.438Z,6.93
2022-11-03T22:43:47.250Z,6.72
2022-11-03T22:46:15.985Z,6.03
2022-11-03T22:48:42.857Z,6.60
2022-11-03T22:51:13.191Z,5.85
2022-11-03T22:53:58.530Z,5.70
2022-11-03T22:56:26.181Z,6.30
2022-11-03T22:58:53.123Z,6.53
2022-11-03T23:01:22.163Z,6.15
2022-11-03T23:03:49.438Z,6.40
2022-11-03T23:06:24.644Z,6.75
2022-11-03T23:08:52.625Z,6.97
2022-11-03T23:11:21.917Z,7.07
2022-11-03T23:13:58.000Z,6.60
2022-11-03T23:16:29.690Z,6.82
2022-11-03T23:19:15.530Z,6.93
2022-11-03T23:21:44.702Z,6.50
2022-11-03T23:24:30.410Z,7.55
2022-11-03T23:26:59.537Z,6.15
2022-11-03T23:29:26.629Z,7.05
2022-11-03T23:31:54.162Z,7.13
2022-11-03T23:34:21.250Z,8.68
2022-11-03T23:36:47.881Z,7.38
2022-11-03T23:39:16.350Z,7.03
2022-11-03T23:41:43.957Z,6.95
2022-11-03T23:44:11.689Z,8.48
2022-11-03T23:46:56.934Z,8.10
2022-11-03T23:49:23.587Z,8.27
2022-11-03T23:51:50.377Z,9.13
2022-11-03T23:54:17.242Z,6.00
2022-11-03T23:57:03.803Z,4.43
2022-11-03T23:59:32.584Z,4.38
